createdAt,value
2022-09-10T00:01:21.589Z,78.97
2022-09-10T00:03:51.425Z,79.32
2022-09-10T00:06:19.195Z,79.07
2022-09-10T00:08:47.067Z,79.08
2022-09-10T00:11:14.910Z,79.49
2022-09-10T00:13:42.085Z,79.21
2022-09-10T00:16:11.904Z,79.22
2022-09-10T00:18:39.563Z,79.23
2022-09-10T00:21:10.277Z,79.36
2022-09-10T00:23:36.847Z,79.37
2022-09-10T00:26:23.452Z,79.68
2022-09-10T00:28:51.543Z,79.94
2022-09-10T00:31:19.700Z,79.72
2022-09-10T00:33:46.302Z,79.39
2022-09-10T00:36:33.121Z,79.90
2022-09-10T00:39:03.526Z,79.94
2022-09-10T00:41:30.419Z,80.01
2022-09-10T00:44:02.780Z,79.95
2022-09-10T00:46:32.788Z,80.07
2022-09-10T00:49:02.474Z,79.93
2022-09-10T00:51:32.917Z,80.22
2022-09-10T00:54:01.162Z,79.80
2022-09-10T00:56:28.918Z,80.10
2022-09-10T00:58:55.992Z,79.94
2022-09-10T01:01:23.101Z,79.73
2022-09-10T01:03:50.527Z,79.63
2022-09-10T01:06:18.096Z,79.82
2022-09-10T01:08:44.490Z,79.87
2022-09-10T01:11:29.253Z,79.97
2022-09-10T01:13:58.362Z,79.81
2022-09-10T01:16:34.119Z,79.69
2022-09-10T01:19:19.315Z,79.81
2022-09-10T01:22:02.775Z,79.46
2022-09-10T01:24:48.448Z,79.90
2022-09-10T01:27:37.473Z,79.27
2022-09-10T01:30:09.081Z,79.19
2022-09-10T01:32:55.347Z,79.56
2022-09-10T01:35:37.400Z,79.55
2022-09-10T01:38:10.816Z,79.45
2022-09-10T01:40:38.278Z,79.67
2022-09-10T01:43:10.937Z,79.58
2022-09-10T01:45:51.031Z,79.32
2022-09-10T01:48:53.982Z,79.59
2022-09-10T01:51:38.424Z,79.12
2022-09-10T01:54:11.296Z,79.67
2022-09-10T01:56:43.771Z,79.99
2022-09-10T01:59:25.504Z,79.89
2022-09-10T02:02:03.842Z,80.03
2022-09-10T02:04:31.871Z,79.89
2022-09-10T02:06:59.624Z,80.08
2022-09-10T02:09:26.514Z,79.54
2022-09-10T02:11:54.672Z,80.03
2022-09-10T02:14:33.700Z,80.16
2022-09-10T02:17:22.127Z,79.74
2022-09-10T02:19:52.278Z,79.58
2022-09-10T02:22:19.221Z,79.83
2022-09-10T02:24:45.584Z,79.75
2022-09-10T02:27:12.815Z,79.62
2022-09-10T02:29:39.782Z,79.88
2022-09-10T02:32:08.207Z,80.44
2022-09-10T02:34:36.140Z,80.03
2022-09-10T02:37:03.580Z,80.20
2022-09-10T02:39:30.881Z,79.94
2022-09-10T02:41:58.594Z,80.17
2022-09-10T02:44:27.914Z,79.91
2022-09-10T02:46:55.197Z,80.31
2022-09-10T02:49:21.752Z,79.71
2022-09-10T02:51:50.413Z,79.88
2022-09-10T02:54:19.806Z,80.11
2022-09-10T02:56:49.741Z,79.81
2022-09-10T02:59:17.869Z,79.79
2022-09-10T03:01:44.418Z,79.48
2022-09-10T03:04:11.093Z,79.79
2022-09-10T03:06:38.050Z,79.84
2022-09-10T03:09:04.818Z,79.66
2022-09-10T03:11:31.601Z,80.01
2022-09-10T03:13:58.576Z,80.00
2022-09-10T03:16:25.500Z,80.25
2022-09-10T03:18:52.272Z,80.03
2022-09-10T03:21:21.256Z,80.10
2022-09-10T03:23:49.743Z,80.11
2022-09-10T03:26:22.514Z,79.79
2022-09-10T03:28:49.982Z,79.61
2022-09-10T03:31:19.229Z,79.88
2022-09-10T03:33:49.073Z,79.59
2022-09-10T03:36:15.486Z,79.71
2022-09-10T03:38:43.798Z,79.91
2022-09-10T03:41:10.502Z,79.78
2022-09-10T03:43:38.062Z,79.65
2022-09-10T03:46:07.971Z,79.90
2022-09-10T03:48:39.368Z,79.81
2022-09-10T03:51:07.819Z,80.10
2022-09-10T03:53:34.614Z,79.84
2022-09-10T03:56:02.035Z,80.25
2022-09-10T03:58:28.634Z,80.20
2022-09-10T04:00:55.127Z,80.06
2022-09-10T04:03:22.762Z,79.67
2022-09-10T04:05:49.329Z,79.90
2022-09-10T04:08:15.922Z,80.01
2022-09-10T04:10:44.264Z,80.16
2022-09-10T04:13:11.329Z,80.19
2022-09-10T04:15:38.436Z,79.82
2022-09-10T04:18:06.069Z,79.69
2022-09-10T04:20:33.825Z,79.87
2022-09-10T04:23:05.932Z,79.71
2022-09-10T04:25:34.998Z,79.52
2022-09-10T04:28:01.823Z,79.92
2022-09-10T04:30:29.213Z,79.81
2022-09-10T04:32:55.767Z,80.03
2022-09-10T04:35:22.230Z,80.20
2022-09-10T04:37:48.912Z,79.84
2022-09-10T04:40:15.835Z,80.14
2022-09-10T04:42:42.230Z,79.96
2022-09-10T04:45:09.606Z,79.87
2022-09-10T04:47:36.357Z,79.80
2022-09-10T04:50:03.473Z,80.13
2022-09-10T04:52:30.054Z,79.70
2022-09-10T04:54:56.752Z,79.65
2022-09-10T04:57:25.862Z,79.76
2022-09-10T04:59:53.902Z,79.36
2022-09-10T05:02:21.572Z,79.50
2022-09-10T05:04:48.310Z,79.76
2022-09-10T05:07:15.056Z,79.39
2022-09-10T05:09:42.087Z,79.35
2022-09-10T05:12:08.496Z,79.57
2022-09-10T05:14:34.954Z,79.85
2022-09-10T05:17:03.126Z,79.94
2022-09-10T05:19:30.358Z,79.66
2022-09-10T05:22:03.419Z,79.49
2022-09-10T05:24:34.138Z,79.74
2022-09-10T05:27:03.135Z,79.76
2022-09-10T05:29:29.585Z,79.91
2022-09-10T05:31:57.242Z,79.73
2022-09-10T05:34:24.914Z,79.65
2022-09-10T05:36:52.545Z,79.56
2022-09-10T05:39:19.866Z,79.59
2022-09-10T05:41:46.762Z,79.76
2022-09-10T05:44:15.028Z,79.71
2022-09-10T05:46:41.953Z,79.71
2022-09-10T05:49:12.997Z,79.61
2022-09-10T05:51:39.718Z,79.89
2022-09-10T05:54:08.065Z,79.79
2022-09-10T05:56:35.033Z,79.95
2022-09-10T05:59:03.920Z,79.98
2022-09-10T06:01:34.922Z,79.99
2022-09-10T06:04:04.118Z,79.51
2022-09-10T06:06:30.894Z,79.89
2022-09-10T06:09:03.789Z,79.98
2022-09-10T06:11:43.574Z,80.22
2022-09-10T06:14:10.782Z,79.80
2022-09-10T06:16:37.299Z,79.91
2022-09-10T06:19:06.078Z,79.61
2022-09-10T06:21:34.195Z,79.70
2022-09-10T06:24:00.577Z,79.56
2022-09-10T06:26:31.685Z,79.46
2022-09-10T06:29:03.430Z,79.68
2022-09-10T06:31:30.553Z,79.51
2022-09-10T06:33:58.748Z,79.88
2022-09-10T06:36:29.196Z,79.79
2022-09-10T06:38:57.653Z,79.91
2022-09-10T06:41:24.373Z,79.68
2022-09-10T06:44:05.516Z,79.87
2022-09-10T06:47:25.822Z,79.92
2022-09-10T06:49:24.960Z,79.80
2022-09-10T06:51:52.066Z,79.53
2022-09-10T06:54:18.820Z,80.00
2022-09-10T06:56:46.937Z,79.64
2022-09-10T06:59:14.672Z,79.48
2022-09-10T07:01:47.510Z,79.66
2022-09-10T07:04:14.668Z,79.67
2022-09-10T07:06:41.626Z,79.51
2022-09-10T07:09:10.839Z,79.61
2022-09-10T07:11:52.142Z,79.71
2022-09-10T07:14:19.214Z,79.62
2022-09-10T07:16:47.416Z,79.83
2022-09-10T07:19:15.117Z,79.71
2022-09-10T07:21:46.842Z,79.58
2022-09-10T07:24:14.988Z,79.78
2022-09-10T07:26:57.562Z,79.52
2022-09-10T07:29:24.106Z,79.78
2022-09-10T07:31:51.666Z,79.74
2022-09-10T07:34:22.752Z,79.82
2022-09-10T07:36:49.389Z,79.69
2022-09-10T07:39:15.824Z,79.90
2022-09-10T07:41:42.973Z,79.53
2022-09-10T07:44:12.060Z,79.96
2022-09-10T07:46:42.210Z,79.85
2022-09-10T07:49:11.856Z,79.63
2022-09-10T07:51:40.265Z,79.50
2022-09-10T07:54:07.260Z,79.61
2022-09-10T07:56:38.152Z,79.29
2022-09-10T07:59:07.132Z,79.80
2022-09-10T08:01:43.201Z,79.59
2022-09-10T08:04:10.095Z,79.92
2022-09-10T08:06:38.912Z,79.59
2022-09-10T08:09:07.134Z,79.42
2022-09-10T08:11:35.929Z,79.05
2022-09-10T08:14:02.620Z,79.12
2022-09-10T08:16:29.627Z,79.15
2022-09-10T08:19:02.681Z,79.18
2022-09-10T08:21:32.187Z,79.09
2022-09-10T08:24:00.096Z,78.96
2022-09-10T08:26:29.294Z,79.04
2022-09-10T08:28:59.194Z,78.57
2022-09-10T08:31:27.124Z,78.45
2022-09-10T08:33:59.049Z,78.40
2022-09-10T08:36:26.136Z,78.81
2022-09-10T08:38:58.275Z,78.88
2022-09-10T08:41:55.378Z,78.41
2022-09-10T08:44:54.261Z,78.76
2022-09-10T08:47:35.637Z,79.21
2022-09-10T08:50:16.088Z,78.84
2022-09-10T08:52:57.345Z,78.31
2022-09-10T08:55:32.672Z,78.46
2022-09-10T08:58:02.480Z,78.34
2022-09-10T09:00:37.944Z,78.13
2022-09-10T09:03:22.766Z,78.18
2022-09-10T09:05:55.445Z,77.85
2022-09-10T09:08:30.802Z,76.83
2022-09-10T09:11:12.257Z,77.31
2022-09-10T09:13:55.841Z,77.30
2022-09-10T09:16:49.866Z,77.18
2022-09-10T09:19:56.569Z,77.23
2022-09-10T09:22:59.295Z,76.79
2022-09-10T09:25:37.641Z,76.09
2022-09-10T09:28:17.612Z,75.63
2022-09-10T09:30:49.573Z,75.82
2022-09-10T09:33:22.526Z,75.20
2022-09-10T09:36:00.143Z,75.03
2022-09-10T09:38:41.207Z,74.52
2022-09-10T09:41:23.592Z,74.55
2022-09-10T09:44:03.475Z,74.58
2022-09-10T09:46:32.753Z,74.84
2022-09-10T09:49:02.142Z,74.69
2022-09-10T09:51:35.175Z,73.49
2022-09-10T09:56:58.985Z,73.32
2022-09-10T09:59:31.357Z,73.53
2022-09-10T10:02:10.599Z,73.01
2022-09-10T10:04:42.037Z,72.65
2022-09-10T10:07:08.885Z,72.68
2022-09-10T10:09:42.891Z,72.32
2022-09-10T10:12:20.716Z,72.39
2022-09-10T10:14:47.250Z,72.08
2022-09-10T10:17:31.612Z,71.99
2022-09-10T10:20:07.187Z,71.00
2022-09-10T10:22:33.773Z,71.07
2022-09-10T10:25:01.519Z,71.00
2022-09-10T10:27:32.576Z,69.97
2022-09-10T10:30:02.301Z,70.10
2022-09-10T10:32:58.957Z,69.81
2022-09-10T10:35:46.505Z,69.84
2022-09-10T10:38:28.683Z,69.47
2022-09-10T10:41:13.535Z,69.30
2022-09-10T10:43:42.816Z,69.87
2022-09-10T10:46:20.348Z,69.08
2022-09-10T10:49:11.237Z,69.20
2022-09-10T10:52:08.966Z,68.22
2022-09-10T10:55:02.979Z,68.38
2022-09-10T10:58:00.140Z,68.69
2022-09-10T11:00:29.045Z,69.10
2022-09-10T11:03:09.418Z,69.57
2022-09-10T11:05:42.965Z,69.66
2022-09-10T11:08:11.995Z,69.11
2022-09-10T11:10:54.537Z,69.47
2022-09-10T11:13:36.578Z,69.63
2022-09-10T11:16:09.465Z,69.51
2022-09-10T11:18:58.659Z,68.88
2022-09-10T11:22:03.727Z,69.25
2022-09-10T11:25:03.005Z,68.98
2022-09-10T11:27:41.699Z,68.73
2022-09-10T11:30:16.194Z,68.81
2022-09-10T11:32:50.770Z,68.34
2022-09-10T11:35:23.164Z,67.99
2022-09-10T11:37:53.399Z,67.96
2022-09-10T11:40:28.393Z,68.41
2022-09-10T11:42:59.915Z,69.14
2022-09-10T11:45:41.081Z,69.17
2022-09-10T11:48:40.260Z,68.68
2022-09-10T11:51:15.791Z,68.34
2022-09-10T11:53:42.197Z,67.91
2022-09-10T11:56:35.229Z,67.41
2022-09-10T11:59:26.950Z,67.09
2022-09-10T12:02:28.998Z,66.68
2022-09-10T12:05:33.168Z,66.55
2022-09-10T12:08:18.413Z,66.77
2022-09-10T12:11:13.882Z,66.66
2022-09-10T12:13:41.613Z,66.00
2022-09-10T12:16:30.885Z,66.13
2022-09-10T12:18:59.690Z,66.10
2022-09-10T12:21:32.620Z,66.35
2022-09-10T12:24:03.392Z,66.72
2022-09-10T12:26:39.437Z,66.18
2022-09-10T12:29:06.607Z,66.13
2022-09-10T12:32:11.531Z,65.97
2022-09-10T12:34:39.789Z,66.20
2022-09-10T12:37:06.275Z,66.17
2022-09-10T12:39:34.277Z,66.00
2022-09-10T12:42:30.873Z,65.95
2022-09-10T12:44:57.670Z,65.20
2022-09-10T12:47:39.908Z,65.39
2022-09-10T12:50:18.947Z,64.75
2022-09-10T12:52:51.523Z,65.16
2022-09-10T12:55:40.866Z,65.44
2022-09-10T12:58:28.648Z,64.98
2022-09-10T13:00:54.921Z,65.69
2022-09-10T13:03:24.142Z,65.42
2022-09-10T13:05:54.085Z,64.42
2022-09-10T13:08:42.741Z,63.99
2022-09-10T13:11:22.189Z,64.28
2022-09-10T13:13:48.484Z,64.10
2022-09-10T13:16:27.143Z,64.13
2022-09-10T13:19:14.419Z,63.73
2022-09-10T13:21:40.693Z,63.42
2022-09-10T13:24:35.964Z,62.72
2022-09-10T13:27:17.249Z,61.81
2022-09-10T13:29:47.541Z,61.54
2022-09-10T13:32:29.870Z,61.25
2022-09-10T13:35:06.478Z,61.42
2022-09-10T13:38:10.189Z,63.00
2022-09-10T13:40:43.238Z,63.89
2022-09-10T13:43:40.998Z,63.95
2022-09-10T13:46:20.637Z,63.86
2022-09-10T13:48:55.412Z,64.33
2022-09-10T13:51:39.825Z,64.22
2022-09-10T13:54:31.203Z,64.45
2022-09-10T13:57:04.822Z,63.85
2022-09-10T13:59:33.961Z,63.12
2022-09-10T14:02:00.348Z,62.40
2022-09-10T14:04:35.461Z,62.24
2022-09-10T14:07:14.287Z,61.43
2022-09-10T14:09:43.316Z,60.78
2022-09-10T14:12:10.780Z,60.13
2022-09-10T14:14:42.430Z,60.85
2022-09-10T14:17:25.502Z,61.72
2022-09-10T14:20:05.855Z,61.98
2022-09-10T14:22:32.447Z,61.97
2022-09-10T14:25:01.679Z,62.03
2022-09-10T14:27:36.390Z,62.06
2022-09-10T14:30:20.892Z,61.50
2022-09-10T14:32:47.281Z,61.12
2022-09-10T14:35:37.187Z,60.62
2022-09-10T14:38:21.167Z,60.63
2022-09-10T14:40:47.866Z,61.32
2022-09-10T14:43:15.745Z,60.98
2022-09-10T14:45:47.672Z,60.93
2022-09-10T14:48:37.241Z,61.04
2022-09-10T14:51:23.847Z,60.62
2022-09-10T14:53:55.453Z,60.70
2022-09-10T14:56:37.886Z,60.49
2022-09-10T14:59:13.217Z,60.63
2022-09-10T15:01:45.371Z,60.54
2022-09-10T15:04:18.514Z,60.17
2022-09-10T15:06:45.067Z,59.35
2022-09-10T15:09:13.548Z,59.38
2022-09-10T15:11:51.568Z,59.74
2022-09-10T15:14:18.509Z,59.99
2022-09-10T15:16:44.906Z,60.47
2022-09-10T15:19:11.777Z,61.09
2022-09-10T15:21:39.572Z,61.36
2022-09-10T15:24:06.385Z,61.32
2022-09-10T15:26:32.982Z,61.33
2022-09-10T15:28:59.340Z,61.30
2022-09-10T15:31:28.532Z,61.58
2022-09-10T15:33:58.477Z,61.72
2022-09-10T15:36:25.827Z,61.92
2022-09-10T15:38:52.673Z,62.52
2022-09-10T15:41:19.776Z,62.37
2022-09-10T15:43:46.750Z,62.60
2022-09-10T15:46:15.807Z,62.29
2022-09-10T15:48:43.259Z,62.59
2022-09-10T15:51:17.009Z,62.44
2022-09-10T15:53:43.817Z,62.14
2022-09-10T15:56:11.664Z,62.27
2022-09-10T15:58:39.100Z,62.07
2022-09-10T16:01:08.637Z,62.19
2022-09-10T16:03:35.022Z,61.97
2022-09-10T16:06:03.630Z,61.25
2022-09-10T16:08:30.642Z,60.89
2022-09-10T16:10:57.684Z,60.86
2022-09-10T16:13:25.922Z,60.40
2022-09-10T16:16:00.343Z,60.43
2022-09-10T16:18:27.802Z,60.85
2022-09-10T16:20:54.741Z,60.53
2022-09-10T16:23:21.345Z,60.52
2022-09-10T16:25:52.594Z,60.49
2022-09-10T16:28:19.037Z,60.93
2022-09-10T16:30:46.146Z,60.83
2022-09-10T16:33:13.872Z,60.89
2022-09-10T16:35:40.210Z,60.95
2022-09-10T16:38:06.845Z,60.55
2022-09-10T16:40:33.191Z,60.88
2022-09-10T16:42:59.581Z,60.88
2022-09-10T16:45:25.973Z,61.07
2022-09-10T16:47:55.127Z,61.10
2022-09-10T16:50:22.750Z,61.37
2022-09-10T16:52:49.380Z,61.38
2022-09-10T16:55:16.194Z,61.45
2022-09-10T16:57:42.557Z,61.87
2022-09-10T17:00:13.878Z,61.38
2022-09-10T17:02:41.100Z,61.44
2022-09-10T17:05:07.793Z,61.30
2022-09-10T17:07:34.165Z,61.30
2022-09-10T17:10:01.186Z,61.40
2022-09-10T17:12:28.052Z,61.82
2022-09-10T17:14:54.426Z,62.04
2022-09-10T17:17:20.794Z,62.13
2022-09-10T17:19:47.138Z,62.23
2022-09-10T17:22:13.536Z,62.41
2022-09-10T17:24:39.919Z,62.61
2022-09-10T17:27:06.563Z,62.63
2022-09-10T17:29:32.923Z,62.82
2022-09-10T17:31:59.269Z,63.08
2022-09-10T17:34:26.444Z,63.17
2022-09-10T17:36:52.854Z,63.25
2022-09-10T17:39:19.861Z,63.35
2022-09-10T17:41:46.605Z,63.26
2022-09-10T17:44:13.443Z,63.72
2022-09-10T17:46:40.149Z,63.66
2022-09-10T17:49:06.614Z,63.74
2022-09-10T17:51:34.405Z,63.68
2022-09-10T17:54:03.112Z,64.09
2022-09-10T17:56:29.949Z,64.18
2022-09-10T17:59:01.913Z,64.41
2022-09-10T18:01:32.081Z,64.46
2022-09-10T18:03:58.493Z,64.53
2022-09-10T18:06:27.061Z,64.78
2022-09-10T18:08:53.494Z,64.70
2022-09-10T18:11:23.980Z,64.95
2022-09-10T18:13:52.129Z,64.92
2022-09-10T18:16:24.285Z,64.97
2022-09-10T18:18:58.190Z,65.12
2022-09-10T18:21:32.906Z,65.04
2022-09-10T18:24:03.836Z,65.28
2022-09-10T18:26:33.589Z,65.28
2022-09-10T18:29:02.954Z,65.59
2022-09-10T18:31:33.093Z,65.80
2022-09-10T18:34:01.404Z,66.00
2022-09-10T18:36:31.487Z,65.88
2022-09-10T18:38:58.777Z,65.94
2022-09-10T18:41:28.173Z,66.12
2022-09-10T18:43:58.059Z,66.42
2022-09-10T18:46:26.001Z,66.28
2022-09-10T18:48:53.294Z,66.48
2022-09-10T18:51:22.554Z,66.66
2022-09-10T18:53:56.385Z,66.86
2022-09-10T18:56:25.306Z,66.84
2022-09-10T18:58:55.615Z,66.80
2022-09-10T19:01:23.691Z,66.99
2022-09-10T19:03:50.454Z,67.08
2022-09-10T19:06:19.997Z,67.05
2022-09-10T19:08:54.805Z,67.09
2022-09-10T19:11:24.276Z,67.27
2022-09-10T19:13:53.213Z,67.92
2022-09-10T19:16:21.375Z,67.59
2022-09-10T19:18:52.199Z,67.44
2022-09-10T19:21:20.202Z,67.68
2022-09-10T19:23:48.326Z,67.68
2022-09-10T19:26:15.214Z,67.57
2022-09-10T19:28:42.021Z,67.89
2022-09-10T19:31:10.550Z,67.82
2022-09-10T19:33:37.332Z,67.80
2022-09-10T19:36:06.041Z,67.90
2022-09-10T19:38:37.863Z,68.09
2022-09-10T19:41:08.391Z,68.10
2022-09-10T19:43:36.238Z,67.89
2022-09-10T19:46:09.965Z,68.07
2022-09-10T19:48:36.948Z,68.12
2022-09-10T19:51:05.090Z,68.01
2022-09-10T19:53:33.373Z,67.90
2022-09-10T19:56:11.413Z,68.02
2022-09-10T19:58:38.179Z,67.90
2022-09-10T20:01:13.507Z,68.10
2022-09-10T20:03:41.686Z,68.05
2022-09-10T20:06:11.262Z,68.32
2022-09-10T20:08:39.019Z,68.38
2022-09-10T20:11:07.680Z,68.40
2022-09-10T20:13:36.594Z,68.49
2022-09-10T20:16:05.257Z,68.56
2022-09-10T20:18:34.013Z,68.48
2022-09-10T20:21:19.790Z,68.62
2022-09-10T20:23:48.970Z,68.83
2022-09-10T20:26:20.829Z,68.99
2022-09-10T20:28:55.549Z,68.97
2022-09-10T20:31:23.893Z,69.01
2022-09-10T20:33:57.251Z,69.02
2022-09-10T20:36:25.086Z,69.24
2022-09-10T20:38:53.094Z,69.35
2022-09-10T20:41:20.095Z,69.15
2022-09-10T20:43:53.373Z,69.44
2022-09-10T20:46:22.281Z,69.66
2022-09-10T20:48:50.173Z,69.44
2022-09-10T20:51:17.853Z,69.28
2022-09-10T20:53:44.672Z,69.41
2022-09-10T20:56:14.065Z,69.59
2022-09-10T20:58:41.402Z,69.57
2022-09-10T21:01:19.173Z,69.30
2022-09-10T21:03:49.493Z,69.56
2022-09-10T21:06:20.346Z,69.32
2022-09-10T21:08:47.914Z,69.54
2022-09-10T21:11:17.219Z,69.37
2022-09-10T21:13:46.406Z,69.54
2022-09-10T21:16:16.052Z,69.77
2022-09-10T21:18:50.838Z,69.63
2022-09-10T21:21:22.552Z,69.32
2022-09-10T21:23:50.772Z,69.45
2022-09-10T21:26:20.577Z,69.53
2022-09-10T21:28:47.893Z,69.55
2022-09-10T21:31:14.658Z,69.59
2022-09-10T21:33:42.417Z,69.86
2022-09-10T21:36:16.705Z,69.61
2022-09-10T21:38:51.137Z,69.92
2022-09-10T21:41:24.010Z,69.91
2022-09-10T21:43:50.392Z,69.91
2022-09-10T21:46:16.762Z,70.17
2022-09-10T21:48:43.305Z,69.89
2022-09-10T21:51:14.766Z,70.42
2022-09-10T21:53:42.571Z,70.31
2022-09-10T21:56:12.616Z,70.29
2022-09-10T21:58:39.102Z,70.30
2022-09-10T22:01:13.837Z,70.41
2022-09-10T22:03:40.560Z,70.46
2022-09-10T22:06:14.227Z,70.49
2022-09-10T22:08:43.034Z,70.52
2022-09-10T22:11:15.992Z,70.32
2022-09-10T22:13:43.885Z,70.72
2022-09-10T22:16:14.727Z,70.74
2022-09-10T22:18:41.624Z,70.82
2022-09-10T22:21:09.078Z,70.90
2022-09-10T22:23:38.042Z,70.92
2022-09-10T22:26:10.728Z,71.01
2022-09-10T22:28:38.254Z,71.02
2022-09-10T22:31:16.174Z,71.02
2022-09-10T22:33:45.494Z,70.91
2022-09-10T22:36:20.204Z,70.89
2022-09-10T22:38:51.921Z,71.04
2022-09-10T22:41:18.862Z,71.11
2022-09-10T22:43:45.650Z,71.12
2022-09-10T22:46:12.844Z,71.41
2022-09-10T22:48:42.393Z,71.22
2022-09-10T22:51:14.940Z,71.22
2022-09-10T22:53:42.676Z,71.45
2022-09-10T22:56:10.745Z,71.63
2022-09-10T22:58:37.365Z,71.58
2022-09-10T23:01:08.637Z,71.90
2022-09-10T23:03:35.608Z,71.89
2022-09-10T23:06:11.766Z,71.60
2022-09-10T23:08:39.631Z,71.72
2022-09-10T23:11:34.331Z,71.60
2022-09-10T23:14:03.318Z,71.95
2022-09-10T23:16:36.263Z,71.93
2022-09-10T23:19:05.344Z,71.77
2022-09-10T23:21:34.008Z,71.77
2022-09-10T23:24:03.514Z,72.37
2022-09-10T23:26:30.336Z,72.52
2022-09-10T23:28:56.894Z,72.64
2022-09-10T23:31:26.678Z,72.44
2022-09-10T23:33:59.017Z,72.82
2022-09-10T23:36:27.149Z,72.79
2022-09-10T23:38:53.771Z,73.14
2022-09-10T23:41:20.321Z,73.27
2022-09-10T23:43:47.213Z,73.25
2022-09-10T23:46:14.045Z,73.36
2022-09-10T23:48:42.518Z,73.58
2022-09-10T23:51:12.049Z,73.31
2022-09-10T23:53:39.361Z,73.72
2022-09-10T23:56:06.519Z,73.51
2022-09-10T23:58:32.894Z,73.67
